createdAt,value
2022-10-04T00:04:34.652Z,9.54
2022-10-04T00:09:59.928Z,9.66
2022-10-04T00:15:33.934Z,9.57
2022-10-04T00:20:59.662Z,9.68
2022-10-04T00:26:23.988Z,9.63
2022-10-04T00:32:10.267Z,9.45
2022-10-04T00:37:55.673Z,9.45
2022-10-04T00:43:38.925Z,9.54
2022-10-04T00:49:08.539Z,9.49
2022-10-04T00:54:41.381Z,9.64
2022-10-04T01:00:11.140Z,9.60
2022-10-04T01:05:37.778Z,9.58
2022-10-04T01:11:04.747Z,9.39
2022-10-04T01:16:29.408Z,9.19
2022-10-04T01:22:13.939Z,9.18
2022-10-04T01:27:41.152Z,9.00
2022-10-04T01:33:03.428Z,9.10
2022-10-04T01:38:25.233Z,9.27
2022-10-04T01:43:54.478Z,9.31
2022-10-04T01:49:19.966Z,9.28
2022-10-04T01:54:46.485Z,9.29
2022-10-04T02:00:12.306Z,8.97
2022-10-04T02:05:38.713Z,9.15
2022-10-04T02:11:03.289Z,8.99
2022-10-04T02:16:26.401Z,8.99
2022-10-04T02:21:49.580Z,8.99
2022-10-04T02:27:12.138Z,8.83
2022-10-04T02:32:53.453Z,8.62
2022-10-04T02:38:22.153Z,8.89
2022-10-04T02:43:52.943Z,8.74
2022-10-04T02:49:21.790Z,8.59
2022-10-04T02:54:48.912Z,8.67
2022-10-04T03:00:16.658Z,8.57
2022-10-04T03:05:40.464Z,8.68
2022-10-04T03:11:04.337Z,8.85
2022-10-04T03:16:26.508Z,8.80
2022-10-04T03:21:51.555Z,8.88
2022-10-04T03:27:33.904Z,8.60
2022-10-04T03:32:56.209Z,8.42
2022-10-04T03:38:18.547Z,8.39
2022-10-04T03:43:50.260Z,8.44
2022-10-04T03:49:31.626Z,8.55
2022-10-04T03:54:56.621Z,8.59
2022-10-04T04:00:19.430Z,8.50
2022-10-04T04:05:50.068Z,8.40
2022-10-04T04:11:21.474Z,8.49
2022-10-04T04:16:43.536Z,8.42
2022-10-04T04:22:05.373Z,8.52
2022-10-04T04:27:29.857Z,8.39
2022-10-04T04:32:56.481Z,8.26
2022-10-04T04:38:22.354Z,8.17
2022-10-04T04:43:44.903Z,8.43
2022-10-04T04:49:06.766Z,8.36
2022-10-04T04:54:28.591Z,8.55
2022-10-04T04:59:55.844Z,8.56
2022-10-04T05:05:28.538Z,8.45
2022-10-04T05:11:16.007Z,8.45
2022-10-04T05:16:43.422Z,8.42
2022-10-04T05:22:14.478Z,8.21
2022-10-04T05:27:39.596Z,8.24
2022-10-04T05:33:05.172Z,8.24
2022-10-04T05:38:40.110Z,8.41
2022-10-04T05:44:02.469Z,8.44
2022-10-04T05:49:28.500Z,8.23
2022-10-04T05:55:16.031Z,8.39
2022-10-04T06:00:51.985Z,8.37
2022-10-04T06:06:22.849Z,8.45
2022-10-04T06:12:07.755Z,8.55
2022-10-04T06:17:54.388Z,8.44
2022-10-04T06:23:18.515Z,8.43
2022-10-04T06:28:47.986Z,8.26
2022-10-04T06:34:22.854Z,8.38
2022-10-04T06:39:56.281Z,8.62
2022-10-04T06:45:36.048Z,8.80
2022-10-04T06:51:16.894Z,8.82
2022-10-04T06:57:01.634Z,8.86
2022-10-04T07:02:34.276Z,9.06
2022-10-04T07:08:36.793Z,9.36
2022-10-04T07:14:13.443Z,9.31
2022-10-04T07:19:40.002Z,9.39
2022-10-04T07:25:24.292Z,9.48
2022-10-04T07:30:55.870Z,9.48
2022-10-04T07:36:24.620Z,9.41
2022-10-04T07:41:55.070Z,9.40
2022-10-04T07:47:29.879Z,9.35
2022-10-04T07:53:09.157Z,9.45
2022-10-04T07:58:43.299Z,9.45
2022-10-04T08:04:32.544Z,9.55
2022-10-04T08:10:25.734Z,9.70
2022-10-04T08:15:47.840Z,9.81
2022-10-04T08:21:16.874Z,9.91
2022-10-04T08:27:20.722Z,10.11
2022-10-04T08:33:06.298Z,10.16
2022-10-04T08:38:57.028Z,10.29
2022-10-04T08:44:46.836Z,10.40
2022-10-04T08:50:39.419Z,10.50
2022-10-04T08:56:27.009Z,10.63
2022-10-04T09:02:35.339Z,10.70
2022-10-04T09:08:04.348Z,10.71
2022-10-04T09:13:47.927Z,10.82
2022-10-04T09:19:46.501Z,10.83
2022-10-04T09:25:32.477Z,11.05
2022-10-04T09:31:06.512Z,11.17
2022-10-04T09:36:41.339Z,11.23
2022-10-04T09:42:34.238Z,11.36
2022-10-04T09:48:25.082Z,11.53
2022-10-04T09:54:04.352Z,11.66
2022-10-04T09:59:37.610Z,11.77
2022-10-04T10:05:16.764Z,11.93
2022-10-04T10:11:03.304Z,12.16
2022-10-04T10:16:33.970Z,12.32
2022-10-04T10:22:31.069Z,12.38
2022-10-04T10:28:02.891Z,12.51
2022-10-04T10:34:13.214Z,12.64
2022-10-04T10:39:49.286Z,12.77
2022-10-04T10:45:29.693Z,12.90
2022-10-04T10:51:03.472Z,13.07
2022-10-04T10:56:42.415Z,13.22
2022-10-04T11:02:52.052Z,13.38
2022-10-04T11:08:27.709Z,13.47
2022-10-04T11:14:20.224Z,13.51
2022-10-04T11:19:50.941Z,13.54
2022-10-04T11:25:25.091Z,13.61
2022-10-04T11:31:11.353Z,13.69
2022-10-04T11:36:45.693Z,13.76
2022-10-04T11:42:30.198Z,13.85
2022-10-04T11:48:11.279Z,13.94
2022-10-04T11:54:04.091Z,14.13
2022-10-04T11:59:45.371Z,14.33
2022-10-04T12:05:26.689Z,14.50
2022-10-04T12:11:53.903Z,14.68
2022-10-04T12:17:15.798Z,14.83
2022-10-04T12:22:42.865Z,14.96
2022-10-04T12:28:20.350Z,15.05
2022-10-04T12:33:53.957Z,15.04
2022-10-04T12:39:52.937Z,15.11
2022-10-04T12:45:27.636Z,15.23
2022-10-04T12:51:00.205Z,15.38
2022-10-04T12:56:47.260Z,15.54
2022-10-04T13:02:21.843Z,15.63
2022-10-04T13:07:55.783Z,15.66
2022-10-04T13:13:23.736Z,15.71
2022-10-04T13:18:56.765Z,15.74
2022-10-04T13:24:55.535Z,15.86
2022-10-04T13:30:36.981Z,15.78
2022-10-04T13:36:12.053Z,15.78
2022-10-04T13:41:51.566Z,15.89
2022-10-04T13:47:42.330Z,15.95
2022-10-04T13:53:25.356Z,16.01
2022-10-04T13:58:57.712Z,16.08
2022-10-04T14:04:34.701Z,16.12
2022-10-04T14:10:27.681Z,16.15
2022-10-04T14:16:08.242Z,16.18
2022-10-04T14:21:52.214Z,16.19
2022-10-04T14:27:32.792Z,16.33
2022-10-04T14:33:25.979Z,16.34
2022-10-04T14:39:06.185Z,16.34
2022-10-04T14:44:45.046Z,16.40
2022-10-04T14:50:21.776Z,16.43
2022-10-04T14:55:57.571Z,16.44
2022-10-04T15:01:25.215Z,16.42
2022-10-04T15:07:04.308Z,16.46
2022-10-04T15:12:58.558Z,16.42
2022-10-04T15:18:38.986Z,16.40
2022-10-04T15:24:24.161Z,16.34
2022-10-04T15:30:18.313Z,16.34
2022-10-04T15:36:13.544Z,16.29
2022-10-04T15:41:56.680Z,16.26
2022-10-04T15:47:53.613Z,16.22
2022-10-04T15:53:40.247Z,16.22
2022-10-04T15:59:30.571Z,16.16
2022-10-04T16:05:19.009Z,16.12
2022-10-04T16:11:14.430Z,16.07
2022-10-04T16:16:39.769Z,15.98
2022-10-04T16:22:29.085Z,15.94
2022-10-04T16:28:05.845Z,15.91
2022-10-04T16:33:42.876Z,15.96
2022-10-04T16:39:24.069Z,15.88
2022-10-04T16:44:54.838Z,15.78
2022-10-04T16:50:54.475Z,15.68
2022-10-04T16:56:20.348Z,15.58
2022-10-04T17:02:03.398Z,15.49
2022-10-04T17:07:37.179Z,15.40
2022-10-04T17:13:50.765Z,15.20
2022-10-04T17:19:32.532Z,15.12
2022-10-04T17:25:03.272Z,15.06
2022-10-04T17:30:27.943Z,14.98
2022-10-04T17:36:18.385Z,14.86
2022-10-04T17:42:08.798Z,14.70
2022-10-04T17:48:04.231Z,14.64
2022-10-04T17:53:48.666Z,14.53
2022-10-04T17:59:15.947Z,14.42
2022-10-04T18:04:59.961Z,14.40
2022-10-04T18:10:50.488Z,14.30
2022-10-04T18:16:24.327Z,14.22
2022-10-04T18:21:52.445Z,14.20
2022-10-04T18:27:25.196Z,14.23
2022-10-04T18:32:57.391Z,14.24
2022-10-04T18:38:26.938Z,14.12
2022-10-04T18:43:57.906Z,14.22
2022-10-04T18:49:24.535Z,14.23
2022-10-04T18:55:02.561Z,14.02
2022-10-04T19:00:49.734Z,14.00
2022-10-04T19:06:30.498Z,13.93
2022-10-04T19:12:13.375Z,13.91
2022-10-04T19:18:06.453Z,13.87
2022-10-04T19:23:41.243Z,13.79
2022-10-04T19:29:18.116Z,13.73
2022-10-04T19:35:16.473Z,13.72
2022-10-04T19:40:48.626Z,13.61
2022-10-04T19:46:32.110Z,13.55
2022-10-04T19:52:17.418Z,13.45
2022-10-04T19:57:40.217Z,13.46
2022-10-04T20:03:02.070Z,13.40
2022-10-04T20:08:48.830Z,13.44
2022-10-04T20:14:16.893Z,13.35
2022-10-04T20:19:41.544Z,13.34
2022-10-04T20:25:03.709Z,13.32
2022-10-04T20:30:25.548Z,13.28
2022-10-04T20:36:02.201Z,13.31
2022-10-04T20:41:30.135Z,13.20
2022-10-04T20:46:52.027Z,13.11
2022-10-04T20:52:17.009Z,13.19
2022-10-04T20:57:40.662Z,13.16
2022-10-04T21:03:10.217Z,13.16
2022-10-04T21:08:32.592Z,13.11
2022-10-04T21:13:59.707Z,13.10
2022-10-04T21:19:33.852Z,13.03
2022-10-04T21:24:57.036Z,12.88
2022-10-04T21:30:19.742Z,12.88
2022-10-04T21:35:41.468Z,12.86
2022-10-04T21:41:03.728Z,12.86
2022-10-04T21:46:25.504Z,12.75
2022-10-04T21:51:47.236Z,12.73
2022-10-04T21:57:08.940Z,12.71
2022-10-04T22:02:30.815Z,12.60
2022-10-04T22:07:52.671Z,12.56
2022-10-04T22:13:14.928Z,12.49
2022-10-04T22:18:36.694Z,12.39
2022-10-04T22:23:58.645Z,12.23
2022-10-04T22:29:20.657Z,12.14
2022-10-04T22:34:42.345Z,11.99
2022-10-04T22:40:04.653Z,11.92
2022-10-04T22:45:33.351Z,11.93
2022-10-04T22:50:55.177Z,11.93
2022-10-04T22:56:16.947Z,11.99
2022-10-04T23:01:39.290Z,11.92
2022-10-04T23:07:00.976Z,12.07
2022-10-04T23:12:22.719Z,12.09
2022-10-04T23:17:46.408Z,12.04
2022-10-04T23:23:21.009Z,11.77
2022-10-04T23:28:42.685Z,11.65
2022-10-04T23:34:15.660Z,11.70
2022-10-04T23:39:37.513Z,11.76
2022-10-04T23:45:01.322Z,11.72
2022-10-04T23:50:32.843Z,11.75
2022-10-04T23:55:56.324Z,11.75
